Time;durP1;ratioP1;P1;durP2;ratioP2;P2;SDS_P1;SDS_P2;PMS_P1;PMS_P2;Temp;Humidity;BMP_temperature;BMP_pressure;BME280_temperature;BME280_humidity;BME280_pressure;Samples;Min_cycle;Max_cycle;Signal;HPM_P1;HPM_P2
2023/06/17 00:00:35;;;;;;;24.30;12.67;;;26.00;51.80;;;;;;5068295;28;20451;-81
2023/06/17 00:03:04;;;;;;;14.40;10.17;;;26.00;50.50;;;;;;5077943;28;20448;-80
2023/06/17 00:05:33;;;;;;;15.57;8.77;;;26.00;50.80;;;;;;5087232;28;20476;-80
2023/06/17 00:08:01;;;;;;;12.30;8.80;;;26.00;50.70;;;;;;5082202;28;20495;-80
2023/06/17 00:10:30;;;;;;;11.60;8.50;;;26.10;50.50;;;;;;5072219;28;20448;-80
2023/06/17 00:13:00;;;;;;;13.70;8.57;;;26.00;50.60;;;;;;5076737;28;20476;-80
2023/06/17 00:15:32;;;;;;;11.90;8.47;;;26.00;50.50;;;;;;5066499;28;20450;-81
2023/06/17 00:18:02;;;;;;;11.30;8.43;;;26.00;50.60;;;;;;5071921;28;20429;-81
2023/06/17 00:20:32;;;;;;;13.10;8.90;;;26.00;50.60;;;;;;5077245;28;20421;-80
2023/06/17 00:23:00;;;;;;;8.43;7.53;;;26.00;50.70;;;;;;5074013;28;20447;-80
2023/06/17 00:25:28;;;;;;;14.83;7.90;;;25.90;50.80;;;;;;5073534;28;20430;-79
2023/06/17 00:27:56;;;;;;;15.20;8.30;;;25.90;50.60;;;;;;5075370;28;20467;-80
2023/06/17 00:30:25;;;;;;;12.00;8.10;;;25.90;50.80;;;;;;5076669;28;20431;-81
2023/06/17 00:32:53;;;;;;;13.23;8.53;;;25.90;50.60;;;;;;5080256;28;20440;-80
2023/06/17 00:35:23;;;;;;;14.53;8.53;;;25.90;50.60;;;;;;5065311;28;20465;-79
2023/06/17 00:37:51;;;;;;;13.23;8.17;;;25.80;50.80;;;;;;5074569;28;20416;-81
2023/06/17 00:40:19;;;;;;;11.70;8.30;;;25.80;50.60;;;;;;5079975;28;20420;-79
2023/06/17 00:42:48;;;;;;;11.63;9.30;;;25.80;51.00;;;;;;5072518;28;20477;-80
2023/06/17 00:45:16;;;;;;;28.13;17.53;;;25.80;51.00;;;;;;5067851;28;20499;-79
2023/06/17 00:47:44;;;;;;;46.60;34.67;;;25.80;50.90;;;;;;5075528;28;20461;-80
2023/06/17 00:50:14;;;;;;;46.53;32.13;;;25.70;51.00;;;;;;5068115;28;20520;-79
2023/06/17 00:52:45;;;;;;;53.20;37.03;;;25.70;51.00;;;;;;5060803;28;20504;-79
2023/06/17 00:55:13;;;;;;;51.97;34.97;;;25.60;51.00;;;;;;5076133;28;20920;-78
2023/06/17 00:57:41;;;;;;;53.50;39.10;;;25.60;51.60;;;;;;5076869;28;20442;-80
2023/06/17 01:00:11;;;;;;;49.63;34.13;;;25.60;52.10;;;;;;5078213;28;20449;-79
2023/06/17 01:02:40;;;;;;;48.83;33.60;;;25.70;51.80;;;;;;5071147;28;20447;-80
2023/06/17 01:05:11;;;;;;;50.70;35.00;;;25.70;51.70;;;;;;5078503;28;20408;-79
2023/06/17 01:07:46;;;;;;;55.23;37.50;;;25.80;51.60;;;;;;5078216;28;20469;-80
2023/06/17 01:10:17;;;;;;;65.40;45.70;;;25.80;51.60;;;;;;5074216;28;20851;-80
2023/06/17 01:12:46;;;;;;;45.40;31.23;;;25.70;51.70;;;;;;5069131;28;20477;-80
2023/06/17 01:15:16;;;;;;;43.50;31.73;;;25.80;51.70;;;;;;5088936;28;20438;-80
2023/06/17 01:17:45;;;;;;;52.57;35.40;;;25.70;51.80;;;;;;5079888;28;20448;-80
2023/06/17 01:20:15;;;;;;;42.43;29.23;;;25.70;52.20;;;;;;5081738;28;20487;-80
2023/06/17 01:22:45;;;;;;;41.80;28.13;;;25.60;52.50;;;;;;5082068;28;20468;-79
2023/06/17 01:25:15;;;;;;;41.63;27.87;;;25.70;52.50;;;;;;5080076;28;20941;-79
2023/06/17 01:27:42;;;;;;;36.00;24.23;;;25.70;52.10;;;;;;5070477;28;20493;-80
2023/06/17 01:30:12;;;;;;;32.47;23.87;;;25.70;52.50;;;;;;5073324;28;20446;-80
2023/06/17 01:32:41;;;;;;;25.93;20.97;;;25.70;52.20;;;;;;5084271;28;20468;-79
2023/06/17 01:35:12;;;;;;;25.20;19.30;;;25.70;52.20;;;;;;5084517;28;20437;-80
2023/06/17 01:37:42;;;;;;;27.53;18.70;;;25.70;52.20;;;;;;5069104;28;20438;-80
2023/06/17 01:40:11;;;;;;;23.70;16.00;;;25.70;52.50;;;;;;5085476;28;20438;-80
2023/06/17 01:42:48;;;;;;;27.00;17.40;;;25.70;52.00;;;;;;5078167;28;20462;-78
2023/06/17 01:45:17;;;;;;;26.17;16.50;;;25.60;52.80;;;;;;5070468;28;20451;-79
2023/06/17 01:47:45;;;;;;;23.50;16.13;;;25.60;52.60;;;;;;5072868;28;20448;-78
2023/06/17 01:50:18;;;;;;;26.07;16.83;;;25.60;52.70;;;;;;5080166;28;20445;-79
2023/06/17 01:52:47;;;;;;;23.87;16.30;;;25.60;52.50;;;;;;5082526;28;20439;-79
2023/06/17 01:55:15;;;;;;;25.33;16.97;;;25.60;52.70;;;;;;5073892;28;20458;-80
2023/06/17 01:57:44;;;;;;;24.20;15.83;;;25.70;52.60;;;;;;5079259;28;20462;-80
2023/06/17 02:00:13;;;;;;;23.53;15.40;;;25.80;52.60;;;;;;5080326;28;20461;-79
2023/06/17 02:02:42;;;;;;;22.10;15.03;;;25.80;52.50;;;;;;5083018;28;20453;-80
2023/06/17 02:05:09;;;;;;;23.00;14.53;;;25.80;52.20;;;;;;5068081;28;20432;-80
2023/06/17 02:07:38;;;;;;;21.93;15.17;;;25.80;52.60;;;;;;5077307;28;20469;-80
2023/06/17 02:10:07;;;;;;;34.17;16.70;;;25.80;52.30;;;;;;5081127;28;20409;-80
2023/06/17 02:12:35;;;;;;;20.67;15.00;;;25.80;52.10;;;;;;5080094;28;20434;-77
2023/06/17 02:15:05;;;;;;;22.30;16.10;;;25.70;52.30;;;;;;5081964;28;20408;-77
2023/06/17 02:17:35;;;;;;;24.80;14.60;;;25.80;52.40;;;;;;5076544;28;20458;-79
2023/06/17 02:20:04;;;;;;;20.43;14.87;;;25.80;52.20;;;;;;5084490;28;20444;-78
2023/06/17 02:22:32;;;;;;;22.33;14.03;;;25.70;51.80;;;;;;5064505;28;20534;-79
2023/06/17 02:25:00;;;;;;;23.77;14.90;;;25.70;52.30;;;;;;5071140;28;20453;-79
2023/06/17 02:27:28;;;;;;;22.63;13.63;;;25.60;52.70;;;;;;5080939;28;20475;-78
2023/06/17 02:29:56;;;;;;;17.07;13.43;;;25.70;52.60;;;;;;5072668;28;20459;-79
2023/06/17 02:32:27;;;;;;;16.43;13.10;;;25.70;52.30;;;;;;5084683;28;20470;-78
2023/06/17 02:34:57;;;;;;;19.30;13.87;;;25.80;52.50;;;;;;5069193;28;20446;-78
2023/06/17 02:37:25;;;;;;;17.50;12.87;;;25.80;52.00;;;;;;5077729;28;20417;-79
2023/06/17 02:39:54;;;;;;;19.67;13.80;;;25.80;52.20;;;;;;5075468;28;20437;-79
2023/06/17 02:42:22;;;;;;;21.07;13.23;;;25.80;52.20;;;;;;5065744;28;20413;-78
2023/06/17 02:44:51;;;;;;;20.77;15.20;;;25.80;52.20;;;;;;5073877;28;20421;-79
2023/06/17 02:47:19;;;;;;;20.23;14.50;;;25.70;51.70;;;;;;5076542;28;20461;-79
2023/06/17 02:49:49;;;;;;;19.10;13.93;;;25.70;52.20;;;;;;5076555;28;20442;-78
2023/06/17 02:52:17;;;;;;;16.63;12.70;;;25.70;52.50;;;;;;5086125;28;20446;-79
2023/06/17 02:54:47;;;;;;;17.80;12.50;;;25.70;52.60;;;;;;5074980;28;20485;-79
2023/06/17 02:57:16;;;;;;;18.90;13.83;;;25.70;52.70;;;;;;5084962;28;20516;-78
2023/06/17 02:59:45;;;;;;;26.27;15.67;;;25.70;52.10;;;;;;5070141;28;20446;-78
2023/06/17 03:02:13;;;;;;;20.53;13.70;;;25.60;52.10;;;;;;5080377;28;20469;-78
2023/06/17 03:04:41;;;;;;;19.87;13.40;;;25.60;52.70;;;;;;5068810;28;20515;-79
2023/06/17 03:07:12;;;;;;;20.23;14.30;;;25.70;52.70;;;;;;5068219;28;20658;-78
2023/06/17 03:09:40;;;;;;;20.63;13.43;;;25.70;52.30;;;;;;5081896;28;20447;-78
2023/06/17 03:12:09;;;;;;;21.77;13.57;;;25.70;52.00;;;;;;5071364;28;20417;-78
2023/06/17 03:14:38;;;;;;;27.93;14.60;;;25.60;51.90;;;;;;5078824;28;20470;-79
2023/06/17 03:17:06;;;;;;;19.33;13.20;;;25.60;52.50;;;;;;5072473;28;20436;-80
2023/06/17 03:19:34;;;;;;;22.10;12.70;;;25.60;52.50;;;;;;5076905;28;20443;-80
2023/06/17 03:22:02;;;;;;;18.93;13.13;;;25.60;52.50;;;;;;5085198;28;20420;-78
2023/06/17 03:24:31;;;;;;;20.37;13.00;;;25.70;52.40;;;;;;5078252;28;20439;-77
2023/06/17 03:26:59;;;;;;;15.63;12.80;;;25.70;52.20;;;;;;5074721;28;20448;-77
2023/06/17 03:29:28;;;;;;;20.23;13.10;;;25.70;51.80;;;;;;5074499;28;20436;-79
2023/06/17 03:31:57;;;;;;;18.33;12.60;;;25.70;51.80;;;;;;5078599;28;20441;-80
2023/06/17 03:34:25;;;;;;;16.10;12.93;;;25.70;51.70;;;;;;5071610;28;20498;-80
2023/06/17 03:36:53;;;;;;;19.40;14.23;;;25.70;51.60;;;;;;5075108;28;20424;-78
2023/06/17 03:39:21;;;;;;;19.87;13.33;;;25.60;51.40;;;;;;5083232;28;20468;-79
2023/06/17 03:41:51;;;;;;;18.90;12.77;;;25.60;51.80;;;;;;5078745;28;20442;-79
2023/06/17 03:44:19;;;;;;;21.33;13.60;;;25.60;52.00;;;;;;5083060;28;20460;-79
2023/06/17 03:46:47;;;;;;;15.67;12.50;;;25.60;51.80;;;;;;5077229;28;20464;-79
2023/06/17 03:49:15;;;;;;;28.43;13.47;;;25.60;52.10;;;;;;5078303;28;20870;-79
2023/06/17 03:51:42;;;;;;;17.10;11.93;;;25.60;51.80;;;;;;5078552;28;20973;-80
2023/06/17 03:54:11;;;;;;;25.43;13.00;;;25.60;51.60;;;;;;5084480;28;20494;-79
2023/06/17 03:56:42;;;;;;;16.07;12.03;;;25.60;51.60;;;;;;5077159;28;20504;-80
2023/06/17 03:59:11;;;;;;;16.67;12.33;;;25.60;51.60;;;;;;5082440;28;20467;-80
2023/06/17 04:01:40;;;;;;;17.17;12.07;;;25.60;51.40;;;;;;5083266;28;20454;-78
2023/06/17 04:04:08;;;;;;;20.60;12.30;;;25.50;51.60;;;;;;5076029;28;20994;-78
2023/06/17 04:06:36;;;;;;;16.10;12.73;;;25.50;51.60;;;;;;5079729;28;20419;-78
2023/06/17 04:09:05;;;;;;;16.03;12.10;;;25.50;51.30;;;;;;5074902;28;20497;-79
2023/06/17 04:11:33;;;;;;;19.60;12.13;;;25.40;51.70;;;;;;5056631;28;20500;-80
2023/06/17 04:14:01;;;;;;;18.10;13.20;;;25.50;51.60;;;;;;5075236;28;20448;-79
2023/06/17 04:16:35;;;;;;;19.53;13.23;;;25.40;51.10;;;;;;5076310;28;20488;-78
2023/06/17 04:19:03;;;;;;;15.60;12.00;;;25.30;51.60;;;;;;5085540;28;20474;-80
2023/06/17 04:21:31;;;;;;;15.93;12.60;;;25.30;51.70;;;;;;5085699;28;20437;-80
2023/06/17 04:23:59;;;;;;;18.87;12.03;;;25.30;51.80;;;;;;5071019;28;20444;-79
2023/06/17 04:26:28;;;;;;;18.70;12.10;;;25.30;51.60;;;;;;5058423;28;20447;-80
2023/06/17 04:28:56;;;;;;;18.97;12.63;;;25.30;51.90;;;;;;5082308;28;20477;-80
2023/06/17 04:31:25;;;;;;;14.93;12.13;;;25.30;51.70;;;;;;5090959;28;20442;-80
2023/06/17 04:33:54;;;;;;;20.17;12.20;;;25.30;52.00;;;;;;5080875;28;20462;-79
2023/06/17 04:36:24;;;;;;;19.90;12.97;;;25.40;52.00;;;;;;5053271;28;20513;-76
2023/06/17 04:38:53;;;;;;;19.07;12.17;;;25.40;51.50;;;;;;5072193;28;20447;-79
2023/06/17 04:41:22;;;;;;;18.07;12.83;;;25.40;51.40;;;;;;5079805;28;20441;-79
2023/06/17 04:43:51;;;;;;;15.97;12.73;;;25.40;51.10;;;;;;5072948;28;20504;-79
2023/06/17 04:46:19;;;;;;;18.23;12.40;;;25.40;51.50;;;;;;5070254;28;20995;-79
2023/06/17 04:48:48;;;;;;;18.73;12.80;;;25.50;51.60;;;;;;5099931;28;20439;-79
2023/06/17 04:51:18;;;;;;;19.73;13.00;;;25.50;51.40;;;;;;5095323;28;20431;-80
2023/06/17 04:53:46;;;;;;;19.63;12.33;;;25.60;51.20;;;;;;5085564;28;20957;-79
2023/06/17 04:56:14;;;;;;;14.53;12.83;;;25.50;51.10;;;;;;5088807;28;20440;-79
2023/06/17 04:58:42;;;;;;;19.03;12.47;;;25.60;51.20;;;;;;5073770;28;20452;-79
2023/06/17 05:01:11;;;;;;;17.93;12.87;;;25.60;51.10;;;;;;5072279;28;20526;-79
2023/06/17 05:03:39;;;;;;;16.47;12.43;;;25.60;50.90;;;;;;5074908;28;20552;-79
2023/06/17 05:06:07;;;;;;;17.87;13.70;;;25.70;50.80;;;;;;5062318;28;20444;-79
2023/06/17 05:08:37;;;;;;;21.93;13.03;;;25.70;50.60;;;;;;5073861;28;20465;-79
2023/06/17 05:11:05;;;;;;;16.00;12.47;;;25.70;50.60;;;;;;5087437;28;20480;-79
2023/06/17 05:13:33;;;;;;;18.83;14.40;;;25.60;50.60;;;;;;5088943;28;21000;-79
2023/06/17 05:16:01;;;;;;;17.23;13.87;;;25.60;50.40;;;;;;5087154;28;20449;-79
2023/06/17 05:18:29;;;;;;;18.93;13.60;;;25.60;50.60;;;;;;5076072;28;20441;-79
2023/06/17 05:20:57;;;;;;;19.70;14.23;;;25.50;50.50;;;;;;5076288;28;20465;-79
2023/06/17 05:23:25;;;;;;;18.73;13.37;;;25.40;50.60;;;;;;5073936;28;20451;-79
2023/06/17 05:25:55;;;;;;;14.33;12.83;;;25.30;51.10;;;;;;5079911;28;20459;-79
2023/06/17 05:28:23;;;;;;;18.70;14.80;;;25.40;51.10;;;;;;5072935;28;20441;-79
2023/06/17 05:30:51;;;;;;;22.97;15.83;;;25.40;51.00;;;;;;5072717;28;20549;-79
2023/06/17 05:33:20;;;;;;;19.00;14.63;;;25.40;51.10;;;;;;5072633;28;20438;-78
2023/06/17 05:35:48;;;;;;;19.10;13.10;;;25.40;50.80;;;;;;5073757;28;20444;-79
2023/06/17 05:38:16;;;;;;;16.10;13.47;;;25.40;51.20;;;;;;5080954;28;20515;-79
2023/06/17 05:40:44;;;;;;;15.80;12.73;;;25.40;50.80;;;;;;5073809;28;20529;-79
2023/06/17 05:43:14;;;;;;;20.37;13.70;;;25.40;51.10;;;;;;5088027;28;20487;-79
2023/06/17 05:45:42;;;;;;;17.50;13.50;;;25.40;51.10;;;;;;5070872;28;20470;-80
2023/06/17 05:48:10;;;;;;;15.97;12.87;;;25.30;51.00;;;;;;5078691;28;20516;-79
2023/06/17 05:50:38;;;;;;;16.93;13.87;;;25.20;51.20;;;;;;5074776;28;20446;-79
2023/06/17 05:53:06;;;;;;;15.93;13.13;;;25.20;51.30;;;;;;5070058;28;20479;-79
2023/06/17 05:55:34;;;;;;;16.63;12.90;;;25.20;51.20;;;;;;5069098;28;20499;-79
2023/06/17 05:58:02;;;;;;;22.70;13.10;;;25.20;51.60;;;;;;5079401;28;20416;-79
2023/06/17 06:00:32;;;;;;;22.93;13.20;;;25.30;51.40;;;;;;5084236;28;20417;-79
2023/06/17 06:03:00;;;;;;;17.70;13.07;;;25.30;51.20;;;;;;5077052;28;21024;-78
2023/06/17 06:05:29;;;;;;;16.67;12.67;;;25.30;51.30;;;;;;5076471;28;20432;-78
2023/06/17 06:07:57;;;;;;;22.40;13.57;;;25.30;51.10;;;;;;5076438;28;20529;-78
2023/06/17 06:10:27;;;;;;;17.90;13.03;;;25.20;51.10;;;;;;5065701;28;20495;-78
2023/06/17 06:12:55;;;;;;;17.70;13.07;;;25.20;51.20;;;;;;5073406;28;20508;-78
2023/06/17 06:15:25;;;;;;;15.17;12.03;;;25.20;51.20;;;;;;5069276;28;20441;-78
2023/06/17 06:17:54;;;;;;;21.13;12.43;;;25.20;51.30;;;;;;5068133;28;20446;-78
2023/06/17 06:20:23;;;;;;;16.03;12.73;;;25.30;51.30;;;;;;5068491;28;20554;-78
2023/06/17 06:22:51;;;;;;;15.83;12.30;;;25.30;51.50;;;;;;5075992;28;20528;-78
2023/06/17 06:25:20;;;;;;;16.67;12.30;;;25.40;51.20;;;;;;5075937;28;20457;-78
2023/06/17 06:27:49;;;;;;;13.73;12.03;;;25.40;51.20;;;;;;5073724;28;20451;-78
2023/06/17 06:30:17;;;;;;;19.17;12.90;;;25.40;50.80;;;;;;5076778;28;20440;-79
2023/06/17 06:32:45;;;;;;;17.30;12.90;;;25.40;51.20;;;;;;5080221;28;20463;-78
2023/06/17 06:35:16;;;;;;;18.17;13.10;;;25.40;50.90;;;;;;5081468;28;20446;-80
2023/06/17 06:37:44;;;;;;;21.07;13.30;;;25.40;50.90;;;;;;5073014;28;20443;-79
2023/06/17 06:40:12;;;;;;;19.97;13.37;;;25.40;51.30;;;;;;5080573;28;20416;-79
2023/06/17 06:42:41;;;;;;;16.00;11.83;;;25.50;51.30;;;;;;5085616;28;20461;-80
2023/06/17 06:45:09;;;;;;;20.00;13.33;;;25.60;51.10;;;;;;5075472;28;20472;-80
2023/06/17 06:47:37;;;;;;;15.30;12.87;;;25.60;50.90;;;;;;5079826;28;20420;-80
2023/06/17 06:50:06;;;;;;;21.17;12.70;;;25.70;50.80;;;;;;5071100;28;20476;-80
2023/06/17 06:52:35;;;;;;;17.53;12.20;;;25.80;50.90;;;;;;5076950;28;20493;-79
2023/06/17 06:55:03;;;;;;;17.43;11.43;;;25.80;50.70;;;;;;5078997;28;20446;-80
2023/06/17 06:57:31;;;;;;;18.10;13.03;;;25.90;50.90;;;;;;5073574;28;20450;-80
2023/06/17 06:59:59;;;;;;;23.33;12.83;;;25.90;50.20;;;;;;5068191;28;20437;-80
2023/06/17 07:02:27;;;;;;;18.80;13.10;;;25.90;50.20;;;;;;5083455;28;20424;-79
2023/06/17 07:04:56;;;;;;;16.23;12.97;;;25.90;50.40;;;;;;5080160;28;20487;-79
2023/06/17 07:07:24;;;;;;;15.73;12.27;;;26.00;50.30;;;;;;5078618;28;20461;-80
2023/06/17 07:09:53;;;;;;;16.00;11.20;;;26.00;50.40;;;;;;5083993;28;20508;-80
2023/06/17 07:12:22;;;;;;;18.10;12.40;;;26.00;50.30;;;;;;5070928;28;20420;-80
2023/06/17 07:14:50;;;;;;;17.23;12.30;;;26.00;50.40;;;;;;5079345;28;20504;-79
2023/06/17 07:17:18;;;;;;;16.57;12.70;;;26.00;50.70;;;;;;5082420;28;20437;-80
2023/06/17 07:19:46;;;;;;;18.67;13.23;;;26.00;50.60;;;;;;5075889;28;20460;-80
2023/06/17 07:22:14;;;;;;;22.33;13.43;;;26.10;50.60;;;;;;5078809;28;20531;-80
2023/06/17 07:24:42;;;;;;;16.13;12.10;;;26.10;50.40;;;;;;5078684;28;20435;-80
2023/06/17 07:27:12;;;;;;;19.33;13.40;;;26.20;49.90;;;;;;5080765;28;20437;-79
2023/06/17 07:29:40;;;;;;;21.43;16.80;;;26.10;50.00;;;;;;5079617;28;20412;-78
2023/06/17 07:32:08;;;;;;;25.03;18.10;;;26.10;50.10;;;;;;5074058;28;21021;-76
2023/06/17 07:34:36;;;;;;;21.13;13.50;;;25.90;50.20;;;;;;5061184;28;20530;-76
2023/06/17 07:37:04;;;;;;;20.00;12.20;;;25.70;51.40;;;;;;5060433;28;20916;-76
2023/06/17 07:39:32;;;;;;;17.83;12.80;;;26.10;50.80;;;;;;5060765;28;20500;-76
2023/06/17 07:42:00;;;;;;;20.83;12.90;;;26.30;49.80;;;;;;5057768;28;20431;-77
2023/06/17 07:44:32;;;;;;;18.20;12.83;;;26.30;48.90;;;;;;5055917;28;20455;-78
2023/06/17 07:47:00;;;;;;;19.50;12.53;;;26.00;50.50;;;;;;5058012;28;20483;-76
2023/06/17 07:49:29;;;;;;;17.97;12.50;;;26.10;49.40;;;;;;5058812;28;20520;-76
2023/06/17 07:51:57;;;;;;;15.87;11.70;;;25.90;50.00;;;;;;5047038;28;20558;-76
2023/06/17 07:54:25;;;;;;;15.03;11.83;;;26.00;50.50;;;;;;5058134;28;20536;-76
2023/06/17 07:56:54;;;;;;;64.10;39.73;;;25.80;50.00;;;;;;5059630;28;20541;-75
2023/06/17 07:59:22;;;;;;;27.40;19.17;;;25.60;50.70;;;;;;5059107;28;20546;-76
2023/06/17 08:01:51;;;;;;;21.90;14.77;;;25.70;51.30;;;;;;5060140;28;20550;-76
2023/06/17 08:04:19;;;;;;;22.30;13.53;;;26.00;50.80;;;;;;5055347;28;20470;-76
2023/06/17 08:06:48;;;;;;;16.60;13.30;;;26.00;50.70;;;;;;5060107;28;20447;-76
2023/06/17 08:09:16;;;;;;;19.00;12.27;;;26.10;50.60;;;;;;5052067;28;20413;-76
2023/06/17 08:11:44;;;;;;;17.27;12.57;;;26.40;50.30;;;;;;5058814;28;20454;-76
2023/06/17 08:14:12;;;;;;;18.07;13.07;;;26.10;49.40;;;;;;5050760;28;20467;-76
2023/06/17 08:16:40;;;;;;;19.10;13.77;;;25.80;50.50;;;;;;5052134;28;20477;-77
2023/06/17 08:19:09;;;;;;;16.50;12.43;;;25.60;50.90;;;;;;5050861;28;20450;-76
2023/06/17 08:21:37;;;;;;;18.67;12.90;;;25.40;51.20;;;;;;5054933;28;20456;-76
2023/06/17 08:24:18;;;;;;;16.03;12.47;;;25.40;51.40;;;;;;5058560;28;20498;-77
2023/06/17 08:26:47;;;;;;;16.30;12.30;;;25.70;52.20;;;;;;5054437;28;20504;-76
2023/06/17 08:29:15;;;;;;;16.90;12.57;;;26.10;50.90;;;;;;5059084;28;20518;-77
2023/06/17 08:31:43;;;;;;;17.40;12.93;;;26.20;49.90;;;;;;5063523;28;20472;-76
2023/06/17 08:34:13;;;;;;;13.40;11.23;;;26.00;50.30;;;;;;5063172;28;20532;-77
2023/06/17 08:36:43;;;;;;;12.97;11.00;;;25.90;51.60;;;;;;5052109;28;20474;-76
2023/06/17 08:39:11;;;;;;;15.70;11.60;;;26.20;50.90;;;;;;5055332;28;20438;-76
2023/06/17 08:41:40;;;;;;;12.73;10.87;;;26.60;49.40;;;;;;5060768;28;20441;-76
2023/06/17 08:44:09;;;;;;;16.40;12.13;;;26.70;49.80;;;;;;5054881;28;20512;-77
2023/06/17 08:46:37;;;;;;;18.70;10.50;;;27.00;49.30;;;;;;5058624;28;20485;-78
2023/06/17 08:49:06;;;;;;;20.57;10.00;;;27.20;48.90;;;;;;5056891;28;20421;-78
2023/06/17 08:51:36;;;;;;;12.47;10.37;;;27.40;48.50;;;;;;5066685;28;20513;-78
2023/06/17 08:54:04;;;;;;;18.37;11.10;;;27.50;48.20;;;;;;5061625;28;20470;-78
2023/06/17 08:56:32;;;;;;;12.30;9.90;;;27.60;47.90;;;;;;5064124;28;20476;-78
2023/06/17 08:59:01;;;;;;;14.20;10.07;;;27.70;47.70;;;;;;5059872;28;20453;-78
2023/06/17 09:01:29;;;;;;;12.83;9.50;;;27.90;47.50;;;;;;5063346;28;20495;-78
2023/06/17 09:03:58;;;;;;;13.07;10.10;;;28.00;47.20;;;;;;5061104;28;20461;-78
2023/06/17 09:06:28;;;;;;;14.90;10.10;;;28.20;47.10;;;;;;5060016;28;20967;-77
2023/06/17 09:08:58;;;;;;;11.50;9.90;;;28.30;46.80;;;;;;5068729;28;20424;-77
2023/06/17 09:11:27;;;;;;;13.47;9.53;;;28.40;46.50;;;;;;5060024;28;20473;-78
2023/06/17 09:13:56;;;;;;;13.13;9.90;;;28.40;46.40;;;;;;5054502;28;20483;-78
2023/06/17 09:16:27;;;;;;;10.90;9.60;;;28.50;46.20;;;;;;5074835;28;20532;-78
2023/06/17 09:18:56;;;;;;;14.60;9.70;;;28.70;46.10;;;;;;5067375;28;20513;-78
2023/06/17 09:21:24;;;;;;;14.30;9.83;;;28.80;45.80;;;;;;5072630;28;20416;-78
2023/06/17 09:23:54;;;;;;;10.57;9.57;;;28.80;45.60;;;;;;5072263;28;20461;-78
2023/06/17 09:26:27;;;;;;;12.27;9.53;;;28.90;45.50;;;;;;5065761;28;20441;-79
2023/06/17 09:29:00;;;;;;;10.90;9.80;;;29.10;45.40;;;;;;5062752;28;20485;-78
2023/06/17 09:31:28;;;;;;;11.03;9.50;;;29.20;45.10;;;;;;5067681;28;20477;-79
2023/06/17 09:33:57;;;;;;;11.57;9.50;;;29.30;44.90;;;;;;5077825;28;20500;-80
2023/06/17 09:36:25;;;;;;;9.43;8.53;;;29.40;44.70;;;;;;5078277;28;21019;-80
2023/06/17 09:38:53;;;;;;;14.60;9.27;;;29.50;44.60;;;;;;5063610;28;20454;-80
2023/06/17 09:41:23;;;;;;;10.90;8.53;;;29.60;44.40;;;;;;5075882;28;21016;-80
2023/06/17 09:43:53;;;;;;;11.00;8.57;;;29.60;44.40;;;;;;5062605;28;20458;-80
2023/06/17 09:46:24;;;;;;;14.63;9.20;;;29.70;44.20;;;;;;5058312;28;20473;-79
2023/06/17 09:48:53;;;;;;;9.23;8.27;;;29.80;44.10;;;;;;5064603;28;20841;-79
2023/06/17 09:51:21;;;;;;;9.53;7.70;;;29.90;44.00;;;;;;5063388;28;20474;-79
2023/06/17 09:53:51;;;;;;;15.57;8.50;;;30.00;43.80;;;;;;5059394;28;20474;-80
2023/06/17 09:56:19;;;;;;;12.10;8.87;;;30.10;43.70;;;;;;5062837;28;20480;-78
2023/06/17 09:58:47;;;;;;;12.00;8.63;;;30.20;43.50;;;;;;5070672;28;20517;-79
2023/06/17 10:01:17;;;;;;;8.97;7.60;;;30.20;43.40;;;;;;5061868;28;20465;-80
2023/06/17 10:03:46;;;;;;;9.60;8.33;;;30.30;43.20;;;;;;5069849;28;20540;-79
2023/06/17 10:06:16;;;;;;;11.40;8.50;;;30.40;43.30;;;;;;5062675;28;20454;-79
2023/06/17 10:08:44;;;;;;;9.33;8.43;;;30.50;43.20;;;;;;5064251;28;20413;-78
2023/06/17 10:11:13;;;;;;;11.50;8.23;;;30.50;43.10;;;;;;5072031;28;20446;-79
2023/06/17 10:13:41;;;;;;;10.57;8.87;;;30.60;43.10;;;;;;5076257;28;20504;-80
2023/06/17 10:16:11;;;;;;;9.37;8.47;;;30.70;43.00;;;;;;5081938;28;20441;-78
2023/06/17 10:18:42;;;;;;;10.33;8.30;;;30.70;42.90;;;;;;5075881;28;20469;-79
2023/06/17 10:21:11;;;;;;;8.63;7.73;;;30.90;42.80;;;;;;5075792;28;20493;-80
2023/06/17 10:23:39;;;;;;;9.73;8.40;;;31.00;42.80;;;;;;5075284;28;20462;-79
2023/06/17 10:26:07;;;;;;;8.90;8.10;;;31.00;42.70;;;;;;5074703;28;20521;-79
2023/06/17 10:28:45;;;;;;;8.43;7.63;;;31.10;42.60;;;;;;5061700;28;20442;-80
2023/06/17 10:31:22;;;;;;;8.37;7.67;;;31.20;42.40;;;;;;5067841;28;20450;-79
2023/06/17 10:33:52;;;;;;;10.90;7.57;;;31.30;42.40;;;;;;5075102;28;20465;-79
2023/06/17 10:36:21;;;;;;;12.73;7.43;;;31.40;42.40;;;;;;5073213;28;20541;-78
2023/06/17 10:38:53;;;;;;;8.80;8.03;;;31.50;42.20;;;;;;5069476;28;20453;-79
2023/06/17 10:41:21;;;;;;;7.73;6.80;;;31.50;42.10;;;;;;5067087;28;20941;-79
2023/06/17 10:43:49;;;;;;;8.20;7.40;;;31.60;42.10;;;;;;5074320;28;20493;-80
2023/06/17 10:46:24;;;;;;;10.10;7.40;;;31.70;42.00;;;;;;5081460;28;20488;-79
2023/06/17 10:48:58;;;;;;;8.87;7.90;;;31.80;41.90;;;;;;5074621;28;20445;-79
2023/06/17 10:51:26;;;;;;;8.83;8.00;;;31.80;41.80;;;;;;5078265;28;21016;-79
2023/06/17 10:54:10;;;;;;;9.43;8.13;;;31.90;41.80;;;;;;5063752;28;20493;-79
2023/06/17 10:56:47;;;;;;;9.93;8.03;;;32.00;41.70;;;;;;5079238;28;20446;-79
2023/06/17 10:59:15;;;;;;;15.83;10.97;;;32.10;41.60;;;;;;5069895;28;20441;-82
2023/06/17 11:01:42;;;;;;;25.23;10.00;;;31.60;40.20;;;;;;5081871;28;20440;-84
2023/06/17 11:04:13;;;;;;;42.17;17.43;;;31.20;42.10;;;;;;5081714;28;20522;-81
2023/06/17 11:06:42;;;;;;;30.57;15.63;;;31.20;42.50;;;;;;5063181;28;20457;-78
2023/06/17 11:09:10;;;;;;;20.17;12.37;;;31.60;42.00;;;;;;5062019;28;20469;-79
2023/06/17 11:11:38;;;;;;;29.33;13.10;;;31.60;41.10;;;;;;5054880;28;20516;-78
2023/06/17 11:14:09;;;;;;;28.63;11.97;;;31.60;40.90;;;;;;5063346;28;20527;-78
2023/06/17 11:16:37;;;;;;;26.03;10.67;;;31.30;41.10;;;;;;5065098;28;20450;-79
2023/06/17 11:19:05;;;;;;;32.77;10.57;;;31.50;42.60;;;;;;5079482;28;20444;-79
2023/06/17 11:21:35;;;;;;;32.33;11.97;;;31.90;41.80;;;;;;5059018;28;20516;-80
2023/06/17 11:24:03;;;;;;;26.83;10.30;;;32.30;41.20;;;;;;5077268;28;20461;-79
2023/06/17 11:26:31;;;;;;;22.27;9.90;;;32.50;40.50;;;;;;5076997;28;20444;-79
2023/06/17 11:28:59;;;;;;;16.07;10.77;;;32.70;40.20;;;;;;5066806;28;20501;-79
2023/06/17 11:31:28;;;;;;;15.80;9.60;;;32.80;39.80;;;;;;5070739;28;20944;-79
2023/06/17 11:33:58;;;;;;;22.73;9.10;;;33.00;39.70;;;;;;5068493;28;20978;-80
2023/06/17 11:36:26;;;;;;;14.00;8.63;;;33.10;39.50;;;;;;5066430;28;20454;-79
2023/06/17 11:38:56;;;;;;;14.60;9.27;;;33.20;39.20;;;;;;5063258;28;20469;-80
2023/06/17 11:41:24;;;;;;;14.23;8.87;;;33.30;38.90;;;;;;5066322;28;20446;-79
2023/06/17 11:43:52;;;;;;;13.37;8.80;;;33.40;38.70;;;;;;5063026;28;20449;-79
2023/06/17 11:46:21;;;;;;;11.20;8.80;;;33.50;38.50;;;;;;5076853;28;20442;-80
2023/06/17 11:48:49;;;;;;;12.30;8.47;;;33.50;38.20;;;;;;5074736;28;20473;-79
2023/06/17 11:51:17;;;;;;;9.90;8.90;;;33.50;38.10;;;;;;5077891;28;20439;-82
2023/06/17 11:53:46;;;;;;;14.83;9.90;;;33.60;38.10;;;;;;5067892;28;20474;-81
2023/06/17 11:56:16;;;;;;;11.23;8.90;;;33.70;38.20;;;;;;5069136;28;20438;-81
2023/06/17 11:58:44;;;;;;;10.73;9.40;;;33.70;38.00;;;;;;5076959;28;20454;-80
2023/06/17 12:01:13;;;;;;;10.83;9.50;;;33.80;37.90;;;;;;5068571;28;20446;-80
2023/06/17 12:03:45;;;;;;;11.17;10.03;;;33.90;37.80;;;;;;5074452;28;20464;-81
2023/06/17 12:06:17;;;;;;;14.63;11.27;;;33.90;37.50;;;;;;5072301;28;20541;-79
2023/06/17 12:08:45;;;;;;;12.17;10.97;;;33.90;37.70;;;;;;5068688;28;20442;-82
2023/06/17 12:11:25;;;;;;;14.30;11.10;;;34.00;37.70;;;;;;5082593;28;20440;-81
2023/06/17 12:13:54;;;;;;;12.17;10.73;;;34.00;37.50;;;;;;5075479;28;20502;-80
2023/06/17 12:16:25;;;;;;;13.40;11.60;;;34.00;37.40;;;;;;5065518;28;20510;-78
2023/06/17 12:18:53;;;;;;;13.80;10.67;;;34.10;37.30;;;;;;5071483;28;20509;-78
2023/06/17 12:21:21;;;;;;;13.20;10.60;;;34.10;37.10;;;;;;5069205;28;20449;-78
2023/06/17 12:23:50;;;;;;;12.00;10.70;;;34.20;37.20;;;;;;5061180;28;20457;-78
2023/06/17 12:26:19;;;;;;;15.80;11.57;;;34.20;37.10;;;;;;5066005;28;20427;-78
2023/06/17 12:28:48;;;;;;;12.17;11.07;;;34.20;37.00;;;;;;5065221;28;20504;-79
2023/06/17 12:31:17;;;;;;;12.57;11.27;;;34.30;36.80;;;;;;5067273;28;20450;-79
2023/06/17 12:33:46;;;;;;;10.63;9.63;;;34.40;36.90;;;;;;5062591;28;20478;-80
2023/06/17 12:36:14;;;;;;;10.57;9.53;;;34.40;36.70;;;;;;5078961;28;20456;-79
2023/06/17 12:38:44;;;;;;;10.43;9.50;;;34.40;36.90;;;;;;5079117;28;20457;-79